sensor_id;sensor_type;location;lat;lon;timestamp;P1;durP1;ratioP1;P2;durP2;ratioP2
29402;SDS011;16382;59.942;30.472;2023-05-10T00:01:28;29.90;;;8.25;;
29402;SDS011;16382;59.942;30.472;2023-05-10T00:03:55;31.83;;;9.18;;
29402;SDS011;16382;59.942;30.472;2023-05-10T00:06:22;29.27;;;8.27;;
29402;SDS011;16382;59.942;30.472;2023-05-10T00:08:49;27.30;;;9.05;;
29402;SDS011;16382;59.942;30.472;2023-05-10T00:11:18;30.27;;;8.38;;
29402;SDS011;16382;59.942;30.472;2023-05-10T00:13:46;29.00;;;9.13;;
29402;SDS011;16382;59.942;30.472;2023-05-10T00:16:13;27.88;;;9.13;;
29402;SDS011;16382;59.942;30.472;2023-05-10T00:18:40;18.45;;;9.57;;
29402;SDS011;16382;59.942;30.472;2023-05-10T00:21:08;19.15;;;8.27;;
29402;SDS011;16382;59.942;30.472;2023-05-10T00:23:35;27.15;;;8.55;;
29402;SDS011;16382;59.942;30.472;2023-05-10T00:26:03;24.83;;;9.85;;
29402;SDS011;16382;59.942;30.472;2023-05-10T00:28:31;27.35;;;8.77;;
29402;SDS011;16382;59.942;30.472;2023-05-10T00:30:58;22.33;;;8.93;;
29402;SDS011;16382;59.942;30.472;2023-05-10T00:33:25;28.88;;;8.88;;
29402;SDS011;16382;59.942;30.472;2023-05-10T00:35:53;32.08;;;8.93;;
29402;SDS011;16382;59.942;30.472;2023-05-10T00:38:20;25.42;;;9.45;;
29402;SDS011;16382;59.942;30.472;2023-05-10T00:40:47;26.15;;;9.80;;
29402;SDS011;16382;59.942;30.472;2023-05-10T00:43:23;28.42;;;10.15;;
29402;SDS011;16382;59.942;30.472;2023-05-10T00:45:51;24.65;;;10.88;;
29402;SDS011;16382;59.942;30.472;2023-05-10T00:48:19;29.48;;;10.38;;
29402;SDS011;16382;59.942;30.472;2023-05-10T00:50:47;28.73;;;10.05;;
29402;SDS011;16382;59.942;30.472;2023-05-10T00:53:14;28.48;;;9.20;;
29402;SDS011;16382;59.942;30.472;2023-05-10T00:55:42;40.40;;;9.73;;
29402;SDS011;16382;59.942;30.472;2023-05-10T00:58:10;32.72;;;10.35;;
29402;SDS011;16382;59.942;30.472;2023-05-10T01:00:39;35.45;;;9.45;;
29402;SDS011;16382;59.942;30.472;2023-05-10T01:03:11;39.90;;;9.73;;
29402;SDS011;16382;59.942;30.472;2023-05-10T01:05:38;26.90;;;8.73;;
29402;SDS011;16382;59.942;30.472;2023-05-10T01:08:05;27.85;;;8.60;;
29402;SDS011;16382;59.942;30.472;2023-05-10T01:10:34;27.70;;;10.18;;
29402;SDS011;16382;59.942;30.472;2023-05-10T01:13:01;37.55;;;10.35;;
29402;SDS011;16382;59.942;30.472;2023-05-10T01:15:29;32.05;;;10.10;;
29402;SDS011;16382;59.942;30.472;2023-05-10T01:17:57;31.65;;;8.98;;
29402;SDS011;16382;59.942;30.472;2023-05-10T01:20:26;26.50;;;8.85;;
29402;SDS011;16382;59.942;30.472;2023-05-10T01:23:10;28.63;;;9.20;;
29402;SDS011;16382;59.942;30.472;2023-05-10T01:32:08;36.22;;;10.07;;
29402;SDS011;16382;59.942;30.472;2023-05-10T01:34:45;31.75;;;9.65;;
29402;SDS011;16382;59.942;30.472;2023-05-10T01:37:20;28.45;;;9.70;;
29402;SDS011;16382;59.942;30.472;2023-05-10T01:39:53;27.02;;;9.98;;
29402;SDS011;16382;59.942;30.472;2023-05-10T01:42:31;23.08;;;9.48;;
29402;SDS011;16382;59.942;30.472;2023-05-10T01:45:06;25.98;;;9.60;;
29402;SDS011;16382;59.942;30.472;2023-05-10T01:47:43;28.83;;;9.38;;
29402;SDS011;16382;59.942;30.472;2023-05-10T01:50:15;24.75;;;9.73;;
29402;SDS011;16382;59.942;30.472;2023-05-10T01:52:53;27.85;;;9.82;;
29402;SDS011;16382;59.942;30.472;2023-05-10T01:55:23;25.08;;;9.65;;
29402;SDS011;16382;59.942;30.472;2023-05-10T01:57:56;31.73;;;9.02;;
29402;SDS011;16382;59.942;30.472;2023-05-10T02:00:29;27.85;;;8.57;;
29402;SDS011;16382;59.942;30.472;2023-05-10T02:03:00;32.33;;;8.88;;
29402;SDS011;16382;59.942;30.472;2023-05-10T02:05:32;25.45;;;10.40;;
29402;SDS011;16382;59.942;30.472;2023-05-10T02:08:00;33.05;;;9.77;;
29402;SDS011;16382;59.942;30.472;2023-05-10T02:10:29;27.50;;;10.07;;
29402;SDS011;16382;59.942;30.472;2023-05-10T02:12:58;36.08;;;10.98;;
29402;SDS011;16382;59.942;30.472;2023-05-10T02:15:26;26.77;;;9.13;;
29402;SDS011;16382;59.942;30.472;2023-05-10T02:17:55;34.17;;;9.85;;
29402;SDS011;16382;59.942;30.472;2023-05-10T02:20:26;28.75;;;9.50;;
29402;SDS011;16382;59.942;30.472;2023-05-10T02:22:54;33.15;;;10.60;;
29402;SDS011;16382;59.942;30.472;2023-05-10T02:25:23;38.30;;;11.13;;
29402;SDS011;16382;59.942;30.472;2023-05-10T02:27:51;29.30;;;10.15;;
29402;SDS011;16382;59.942;30.472;2023-05-10T02:30:22;33.40;;;11.73;;
29402;SDS011;16382;59.942;30.472;2023-05-10T02:32:50;29.95;;;10.50;;
29402;SDS011;16382;59.942;30.472;2023-05-10T02:35:19;34.53;;;10.88;;
29402;SDS011;16382;59.942;30.472;2023-05-10T02:37:47;42.28;;;11.25;;
29402;SDS011;16382;59.942;30.472;2023-05-10T02:40:17;43.53;;;10.32;;
29402;SDS011;16382;59.942;30.472;2023-05-10T02:42:46;30.98;;;10.50;;
29402;SDS011;16382;59.942;30.472;2023-05-10T02:45:17;38.25;;;10.75;;
29402;SDS011;16382;59.942;30.472;2023-05-10T02:47:47;33.13;;;10.77;;
29402;SDS011;16382;59.942;30.472;2023-05-10T02:50:14;28.63;;;10.35;;
29402;SDS011;16382;59.942;30.472;2023-05-10T02:52:42;33.53;;;10.93;;
29402;SDS011;16382;59.942;30.472;2023-05-10T02:55:14;38.72;;;11.48;;
29402;SDS011;16382;59.942;30.472;2023-05-10T02:57:44;36.55;;;10.20;;
29402;SDS011;16382;59.942;30.472;2023-05-10T03:00:16;30.35;;;10.45;;
29402;SDS011;16382;59.942;30.472;2023-05-10T03:02:43;30.70;;;11.02;;
29402;SDS011;16382;59.942;30.472;2023-05-10T03:05:11;35.55;;;10.85;;
29402;SDS011;16382;59.942;30.472;2023-05-10T03:07:38;32.47;;;10.40;;
29402;SDS011;16382;59.942;30.472;2023-05-10T03:10:06;38.00;;;11.25;;
29402;SDS011;16382;59.942;30.472;2023-05-10T03:12:45;40.45;;;11.98;;
29402;SDS011;16382;59.942;30.472;2023-05-10T03:15:25;30.80;;;10.00;;
29402;SDS011;16382;59.942;30.472;2023-05-10T03:18:01;32.97;;;10.45;;
29402;SDS011;16382;59.942;30.472;2023-05-10T03:20:35;29.23;;;11.65;;
29402;SDS011;16382;59.942;30.472;2023-05-10T03:23:10;38.92;;;11.23;;
29402;SDS011;16382;59.942;30.472;2023-05-10T03:25:40;34.75;;;11.10;;
29402;SDS011;16382;59.942;30.472;2023-05-10T03:28:12;48.25;;;12.55;;
29402;SDS011;16382;59.942;30.472;2023-05-10T03:30:41;40.25;;;12.07;;
29402;SDS011;16382;59.942;30.472;2023-05-10T03:33:11;40.45;;;11.68;;
29402;SDS011;16382;59.942;30.472;2023-05-10T03:35:42;45.30;;;11.77;;
29402;SDS011;16382;59.942;30.472;2023-05-10T03:38:11;45.88;;;11.73;;
29402;SDS011;16382;59.942;30.472;2023-05-10T03:40:39;36.65;;;12.55;;
29402;SDS011;16382;59.942;30.472;2023-05-10T03:43:07;33.47;;;11.90;;
29402;SDS011;16382;59.942;30.472;2023-05-10T03:45:36;32.13;;;11.95;;
29402;SDS011;16382;59.942;30.472;2023-05-10T03:48:03;29.73;;;10.68;;
29402;SDS011;16382;59.942;30.472;2023-05-10T03:50:31;36.17;;;11.80;;
29402;SDS011;16382;59.942;30.472;2023-05-10T03:52:58;37.40;;;12.18;;
29402;SDS011;16382;59.942;30.472;2023-05-10T03:55:27;36.30;;;11.23;;
29402;SDS011;16382;59.942;30.472;2023-05-10T03:57:55;31.20;;;10.55;;
29402;SDS011;16382;59.942;30.472;2023-05-10T04:00:23;35.60;;;11.55;;
29402;SDS011;16382;59.942;30.472;2023-05-10T04:02:54;38.05;;;12.75;;
29402;SDS011;16382;59.942;30.472;2023-05-10T04:05:22;27.63;;;12.15;;
29402;SDS011;16382;59.942;30.472;2023-05-10T04:07:52;34.55;;;11.45;;
29402;SDS011;16382;59.942;30.472;2023-05-10T04:10:19;35.60;;;12.75;;
29402;SDS011;16382;59.942;30.472;2023-05-10T04:12:46;34.65;;;12.07;;
29402;SDS011;16382;59.942;30.472;2023-05-10T04:15:14;32.63;;;12.07;;
29402;SDS011;16382;59.942;30.472;2023-05-10T04:17:41;40.25;;;12.00;;
29402;SDS011;16382;59.942;30.472;2023-05-10T04:20:10;34.20;;;12.88;;
29402;SDS011;16382;59.942;30.472;2023-05-10T04:22:38;35.40;;;12.45;;
29402;SDS011;16382;59.942;30.472;2023-05-10T04:25:06;24.13;;;11.20;;
29402;SDS011;16382;59.942;30.472;2023-05-10T04:27:34;30.73;;;11.45;;
29402;SDS011;16382;59.942;30.472;2023-05-10T04:30:01;27.40;;;10.80;;
29402;SDS011;16382;59.942;30.472;2023-05-10T04:32:31;31.27;;;11.48;;
29402;SDS011;16382;59.942;30.472;2023-05-10T04:34:59;29.23;;;11.95;;
29402;SDS011;16382;59.942;30.472;2023-05-10T04:37:30;31.63;;;13.32;;
29402;SDS011;16382;59.942;30.472;2023-05-10T04:39:58;32.25;;;13.10;;
29402;SDS011;16382;59.942;30.472;2023-05-10T04:42:26;51.67;;;13.80;;
29402;SDS011;16382;59.942;30.472;2023-05-10T04:44:53;32.58;;;13.50;;
29402;SDS011;16382;59.942;30.472;2023-05-10T04:47:20;31.25;;;12.15;;
29402;SDS011;16382;59.942;30.472;2023-05-10T04:49:47;30.15;;;13.15;;
29402;SDS011;16382;59.942;30.472;2023-05-10T04:52:15;32.45;;;13.25;;
29402;SDS011;16382;59.942;30.472;2023-05-10T04:54:44;26.38;;;12.60;;
29402;SDS011;16382;59.942;30.472;2023-05-10T04:57:11;31.67;;;11.93;;
29402;SDS011;16382;59.942;30.472;2023-05-10T04:59:39;31.95;;;13.48;;
29402;SDS011;16382;59.942;30.472;2023-05-10T05:02:06;29.05;;;11.70;;
29402;SDS011;16382;59.942;30.472;2023-05-10T05:04:33;23.50;;;12.13;;
29402;SDS011;16382;59.942;30.472;2023-05-10T05:07:00;25.23;;;11.88;;
29402;SDS011;16382;59.942;30.472;2023-05-10T05:09:28;24.38;;;11.07;;
29402;SDS011;16382;59.942;30.472;2023-05-10T05:11:58;24.17;;;11.23;;
29402;SDS011;16382;59.942;30.472;2023-05-10T05:14:25;20.17;;;8.30;;
29402;SDS011;16382;59.942;30.472;2023-05-10T05:16:52;16.80;;;7.78;;
29402;SDS011;16382;59.942;30.472;2023-05-10T05:19:21;16.23;;;7.88;;
29402;SDS011;16382;59.942;30.472;2023-05-10T05:21:48;20.58;;;8.90;;
29402;SDS011;16382;59.942;30.472;2023-05-10T05:24:15;18.35;;;8.98;;
29402;SDS011;16382;59.942;30.472;2023-05-10T05:26:43;20.15;;;8.50;;
29402;SDS011;16382;59.942;30.472;2023-05-10T05:29:11;20.95;;;9.52;;
29402;SDS011;16382;59.942;30.472;2023-05-10T05:31:38;17.00;;;9.00;;
29402;SDS011;16382;59.942;30.472;2023-05-10T05:34:06;19.50;;;7.75;;
29402;SDS011;16382;59.942;30.472;2023-05-10T05:36:35;15.32;;;7.40;;
29402;SDS011;16382;59.942;30.472;2023-05-10T05:39:06;7.32;;;5.30;;
29402;SDS011;16382;59.942;30.472;2023-05-10T05:41:34;12.35;;;6.10;;
29402;SDS011;16382;59.942;30.472;2023-05-10T05:44:04;9.98;;;5.88;;
29402;SDS011;16382;59.942;30.472;2023-05-10T05:46:33;11.25;;;5.07;;
29402;SDS011;16382;59.942;30.472;2023-05-10T05:49:01;7.88;;;4.63;;
29402;SDS011;16382;59.942;30.472;2023-05-10T05:51:28;7.97;;;4.10;;
29402;SDS011;16382;59.942;30.472;2023-05-10T05:53:55;4.60;;;4.15;;
29402;SDS011;16382;59.942;30.472;2023-05-10T05:56:22;7.45;;;5.10;;
29402;SDS011;16382;59.942;30.472;2023-05-10T05:58:50;10.77;;;4.55;;
29402;SDS011;16382;59.942;30.472;2023-05-10T06:01:18;14.43;;;5.78;;
29402;SDS011;16382;59.942;30.472;2023-05-10T06:03:47;8.25;;;4.60;;
29402;SDS011;16382;59.942;30.472;2023-05-10T06:06:14;12.63;;;4.55;;
29402;SDS011;16382;59.942;30.472;2023-05-10T06:08:41;8.95;;;4.30;;
29402;SDS011;16382;59.942;30.472;2023-05-10T06:11:08;8.75;;;4.18;;
29402;SDS011;16382;59.942;30.472;2023-05-10T06:13:35;7.05;;;4.32;;
29402;SDS011;16382;59.942;30.472;2023-05-10T06:16:03;9.13;;;4.22;;
29402;SDS011;16382;59.942;30.472;2023-05-10T06:18:30;7.72;;;4.57;;
29402;SDS011;16382;59.942;30.472;2023-05-10T06:20:59;13.52;;;4.05;;
29402;SDS011;16382;59.942;30.472;2023-05-10T06:23:26;9.80;;;4.05;;
29402;SDS011;16382;59.942;30.472;2023-05-10T06:25:54;10.75;;;4.18;;
29402;SDS011;16382;59.942;30.472;2023-05-10T06:28:21;13.05;;;4.72;;
29402;SDS011;16382;59.942;30.472;2023-05-10T06:30:48;16.48;;;5.78;;
29402;SDS011;16382;59.942;30.472;2023-05-10T06:33:15;14.50;;;5.10;;
29402;SDS011;16382;59.942;30.472;2023-05-10T06:35:43;13.57;;;4.50;;
29402;SDS011;16382;59.942;30.472;2023-05-10T06:38:12;16.23;;;4.60;;
29402;SDS011;16382;59.942;30.472;2023-05-10T06:40:40;7.07;;;3.53;;
29402;SDS011;16382;59.942;30.472;2023-05-10T06:43:08;6.22;;;3.55;;
29402;SDS011;16382;59.942;30.472;2023-05-10T06:45:35;14.57;;;4.30;;
29402;SDS011;16382;59.942;30.472;2023-05-10T06:48:03;7.50;;;3.67;;
29402;SDS011;16382;59.942;30.472;2023-05-10T06:50:31;10.60;;;4.00;;
29402;SDS011;16382;59.942;30.472;2023-05-10T06:52:58;13.75;;;4.30;;
29402;SDS011;16382;59.942;30.472;2023-05-10T06:55:27;3.38;;;2.88;;
29402;SDS011;16382;59.942;30.472;2023-05-10T06:57:54;7.55;;;3.08;;
29402;SDS011;16382;59.942;30.472;2023-05-10T07:00:22;7.30;;;3.38;;
29402;SDS011;16382;59.942;30.472;2023-05-10T07:02:49;5.43;;;3.17;;
29402;SDS011;16382;59.942;30.472;2023-05-10T07:05:16;4.53;;;2.75;;
29402;SDS011;16382;59.942;30.472;2023-05-10T07:07:44;7.32;;;2.95;;
29402;SDS011;16382;59.942;30.472;2023-05-10T07:10:11;8.90;;;2.90;;
29402;SDS011;16382;59.942;30.472;2023-05-10T07:12:40;6.78;;;2.65;;
29402;SDS011;16382;59.942;30.472;2023-05-10T07:15:07;9.93;;;3.33;;
29402;SDS011;16382;59.942;30.472;2023-05-10T07:17:35;4.57;;;2.60;;
29402;SDS011;16382;59.942;30.472;2023-05-10T07:20:03;6.38;;;2.85;;
29402;SDS011;16382;59.942;30.472;2023-05-10T07:22:31;5.35;;;2.83;;
29402;SDS011;16382;59.942;30.472;2023-05-10T07:24:58;7.35;;;3.47;;
29402;SDS011;16382;59.942;30.472;2023-05-10T07:27:26;7.75;;;3.50;;
29402;SDS011;16382;59.942;30.472;2023-05-10T07:29:54;9.60;;;2.80;;
29402;SDS011;16382;59.942;30.472;2023-05-10T07:32:22;5.45;;;2.88;;
29402;SDS011;16382;59.942;30.472;2023-05-10T07:34:49;15.98;;;2.70;;
29402;SDS011;16382;59.942;30.472;2023-05-10T07:37:17;7.53;;;2.75;;
29402;SDS011;16382;59.942;30.472;2023-05-10T07:39:44;4.13;;;3.00;;
29402;SDS011;16382;59.942;30.472;2023-05-10T07:42:11;7.40;;;2.47;;
29402;SDS011;16382;59.942;30.472;2023-05-10T07:44:38;6.28;;;2.72;;
29402;SDS011;16382;59.942;30.472;2023-05-10T07:47:07;4.95;;;2.55;;
29402;SDS011;16382;59.942;30.472;2023-05-10T07:49:34;4.60;;;2.50;;
29402;SDS011;16382;59.942;30.472;2023-05-10T07:52:02;6.97;;;2.50;;
29402;SDS011;16382;59.942;30.472;2023-05-10T07:54:29;3.70;;;2.45;;
29402;SDS011;16382;59.942;30.472;2023-05-10T07:56:57;8.02;;;2.70;;
29402;SDS011;16382;59.942;30.472;2023-05-10T07:59:25;8.20;;;3.25;;
29402;SDS011;16382;59.942;30.472;2023-05-10T08:01:52;6.13;;;2.80;;
29402;SDS011;16382;59.942;30.472;2023-05-10T08:04:21;9.75;;;2.38;;
29402;SDS011;16382;59.942;30.472;2023-05-10T08:06:48;8.52;;;2.47;;
29402;SDS011;16382;59.942;30.472;2023-05-10T08:09:16;4.65;;;2.17;;
29402;SDS011;16382;59.942;30.472;2023-05-10T08:11:43;4.50;;;1.85;;
29402;SDS011;16382;59.942;30.472;2023-05-10T08:14:10;5.15;;;2.42;;
29402;SDS011;16382;59.942;30.472;2023-05-10T08:16:38;4.25;;;2.33;;
29402;SDS011;16382;59.942;30.472;2023-05-10T08:19:05;5.15;;;1.90;;
29402;SDS011;16382;59.942;30.472;2023-05-10T08:21:34;8.68;;;2.58;;
29402;SDS011;16382;59.942;30.472;2023-05-10T08:24:02;10.23;;;3.00;;
29402;SDS011;16382;59.942;30.472;2023-05-10T08:26:30;8.27;;;2.53;;
29402;SDS011;16382;59.942;30.472;2023-05-10T08:28:58;6.70;;;2.80;;
29402;SDS011;16382;59.942;30.472;2023-05-10T08:31:26;9.70;;;2.10;;
29402;SDS011;16382;59.942;30.472;2023-05-10T08:33:53;4.68;;;2.33;;
29402;SDS011;16382;59.942;30.472;2023-05-10T08:36:20;2.40;;;1.90;;
29402;SDS011;16382;59.942;30.472;2023-05-10T08:38:51;3.47;;;2.20;;
29402;SDS011;16382;59.942;30.472;2023-05-10T08:41:19;6.88;;;2.28;;
29402;SDS011;16382;59.942;30.472;2023-05-10T08:43:47;8.73;;;2.72;;
29402;SDS011;16382;59.942;30.472;2023-05-10T08:46:15;5.50;;;2.45;;
29402;SDS011;16382;59.942;30.472;2023-05-10T08:48:44;7.90;;;2.65;;
29402;SDS011;16382;59.942;30.472;2023-05-10T08:51:12;6.85;;;2.00;;
29402;SDS011;16382;59.942;30.472;2023-05-10T08:53:41;7.78;;;2.53;;
29402;SDS011;16382;59.942;30.472;2023-05-10T08:56:10;8.20;;;2.08;;
29402;SDS011;16382;59.942;30.472;2023-05-10T08:58:38;3.85;;;1.95;;
29402;SDS011;16382;59.942;30.472;2023-05-10T09:01:05;6.65;;;2.40;;
29402;SDS011;16382;59.942;30.472;2023-05-10T09:03:33;9.30;;;2.30;;
29402;SDS011;16382;59.942;30.472;2023-05-10T09:06:01;3.63;;;2.08;;
29402;SDS011;16382;59.942;30.472;2023-05-10T09:08:29;4.03;;;2.00;;
29402;SDS011;16382;59.942;30.472;2023-05-10T09:10:56;8.88;;;2.50;;
29402;SDS011;16382;59.942;30.472;2023-05-10T09:13:25;4.43;;;2.03;;
29402;SDS011;16382;59.942;30.472;2023-05-10T09:15:53;6.25;;;2.30;;
29402;SDS011;16382;59.942;30.472;2023-05-10T09:18:21;8.82;;;2.42;;
29402;SDS011;16382;59.942;30.472;2023-05-10T09:20:48;6.80;;;2.22;;
29402;SDS011;16382;59.942;30.472;2023-05-10T09:23:16;5.60;;;2.42;;
29402;SDS011;16382;59.942;30.472;2023-05-10T09:25:43;6.80;;;2.38;;
29402;SDS011;16382;59.942;30.472;2023-05-10T09:28:10;3.53;;;2.17;;
29402;SDS011;16382;59.942;30.472;2023-05-10T09:30:39;13.43;;;2.50;;
29402;SDS011;16382;59.942;30.472;2023-05-10T09:33:08;4.75;;;2.65;;
29402;SDS011;16382;59.942;30.472;2023-05-10T09:35:35;5.45;;;2.22;;
29402;SDS011;16382;59.942;30.472;2023-05-10T09:38:05;8.52;;;2.35;;
29402;SDS011;16382;59.942;30.472;2023-05-10T09:40:32;5.63;;;1.95;;
29402;SDS011;16382;59.942;30.472;2023-05-10T09:43:00;4.53;;;2.85;;
29402;SDS011;16382;59.942;30.472;2023-05-10T09:45:29;8.57;;;2.70;;
29402;SDS011;16382;59.942;30.472;2023-05-10T09:47:59;8.80;;;2.80;;
29402;SDS011;16382;59.942;30.472;2023-05-10T09:50:28;9.18;;;2.70;;
29402;SDS011;16382;59.942;30.472;2023-05-10T09:52:57;5.05;;;2.40;;
29402;SDS011;16382;59.942;30.472;2023-05-10T09:55:25;10.73;;;2.50;;
29402;SDS011;16382;59.942;30.472;2023-05-10T09:58:05;7.15;;;2.60;;
29402;SDS011;16382;59.942;30.472;2023-05-10T10:00:36;9.93;;;2.88;;
29402;SDS011;16382;59.942;30.472;2023-05-10T10:03:06;6.05;;;2.72;;
29402;SDS011;16382;59.942;30.472;2023-05-10T10:05:39;9.43;;;2.60;;
29402;SDS011;16382;59.942;30.472;2023-05-10T10:08:07;4.05;;;2.80;;
29402;SDS011;16382;59.942;30.472;2023-05-10T10:10:35;3.40;;;3.05;;
29402;SDS011;16382;59.942;30.472;2023-05-10T10:13:04;6.40;;;2.70;;
29402;SDS011;16382;59.942;30.472;2023-05-10T10:15:31;4.68;;;2.40;;
29402;SDS011;16382;59.942;30.472;2023-05-10T10:17:59;7.22;;;2.45;;
29402;SDS011;16382;59.942;30.472;2023-05-10T10:20:28;5.57;;;2.13;;
29402;SDS011;16382;59.942;30.472;2023-05-10T10:22:55;4.97;;;2.55;;
29402;SDS011;16382;59.942;30.472;2023-05-10T10:25:23;6.40;;;2.50;;
29402;SDS011;16382;59.942;30.472;2023-05-10T10:27:58;7.95;;;2.22;;
29402;SDS011;16382;59.942;30.472;2023-05-10T10:30:35;6.90;;;2.63;;
29402;SDS011;16382;59.942;30.472;2023-05-10T10:33:13;6.18;;;2.20;;
29402;SDS011;16382;59.942;30.472;2023-05-10T10:35:57;8.70;;;2.20;;
29402;SDS011;16382;59.942;30.472;2023-05-10T10:38:35;4.60;;;2.05;;
29402;SDS011;16382;59.942;30.472;2023-05-10T10:41:09;3.88;;;1.67;;
29402;SDS011;16382;59.942;30.472;2023-05-10T10:43:37;3.55;;;2.15;;
29402;SDS011;16382;59.942;30.472;2023-05-10T10:46:11;3.15;;;1.75;;
29402;SDS011;16382;59.942;30.472;2023-05-10T10:48:39;2.28;;;2.08;;
29402;SDS011;16382;59.942;30.472;2023-05-10T10:51:08;3.83;;;2.00;;
29402;SDS011;16382;59.942;30.472;2023-05-10T10:53:36;6.25;;;1.65;;
29402;SDS011;16382;59.942;30.472;2023-05-10T10:56:05;5.45;;;2.00;;
29402;SDS011;16382;59.942;30.472;2023-05-10T10:58:35;4.75;;;2.15;;
29402;SDS011;16382;59.942;30.472;2023-05-10T11:01:13;4.82;;;1.85;;
29402;SDS011;16382;59.942;30.472;2023-05-10T11:03:54;4.55;;;1.73;;
29402;SDS011;16382;59.942;30.472;2023-05-10T11:06:45;5.50;;;1.92;;
29402;SDS011;16382;59.942;30.472;2023-05-10T11:09:12;2.50;;;1.55;;
29402;SDS011;16382;59.942;30.472;2023-05-10T11:11:50;7.32;;;2.05;;
29402;SDS011;16382;59.942;30.472;2023-05-10T11:14:20;14.00;;;1.80;;
29402;SDS011;16382;59.942;30.472;2023-05-10T11:16:48;3.67;;;1.70;;
29402;SDS011;16382;59.942;30.472;2023-05-10T11:19:16;4.05;;;1.83;;
29402;SDS011;16382;59.942;30.472;2023-05-10T11:21:46;3.83;;;1.80;;
29402;SDS011;16382;59.942;30.472;2023-05-10T11:24:16;3.25;;;1.95;;
29402;SDS011;16382;59.942;30.472;2023-05-10T11:26:44;4.90;;;1.60;;
29402;SDS011;16382;59.942;30.472;2023-05-10T11:29:12;5.07;;;2.00;;
29402;SDS011;16382;59.942;30.472;2023-05-10T11:31:43;5.40;;;2.28;;
29402;SDS011;16382;59.942;30.472;2023-05-10T11:34:13;8.40;;;2.10;;
29402;SDS011;16382;59.942;30.472;2023-05-10T11:36:52;5.13;;;1.88;;
29402;SDS011;16382;59.942;30.472;2023-05-10T11:39:20;8.57;;;2.20;;
29402;SDS011;16382;59.942;30.472;2023-05-10T11:41:48;11.15;;;2.03;;
29402;SDS011;16382;59.942;30.472;2023-05-10T11:44:16;4.35;;;1.73;;
29402;SDS011;16382;59.942;30.472;2023-05-10T11:46:43;2.72;;;1.90;;
29402;SDS011;16382;59.942;30.472;2023-05-10T11:49:10;3.05;;;1.80;;
29402;SDS011;16382;59.942;30.472;2023-05-10T11:51:38;3.55;;;1.98;;
29402;SDS011;16382;59.942;30.472;2023-05-10T11:54:10;3.47;;;1.65;;
29402;SDS011;16382;59.942;30.472;2023-05-10T11:56:38;12.07;;;1.65;;
29402;SDS011;16382;59.942;30.472;2023-05-10T11:59:06;4.35;;;1.70;;
29402;SDS011;16382;59.942;30.472;2023-05-10T12:01:34;3.22;;;1.70;;
29402;SDS011;16382;59.942;30.472;2023-05-10T12:04:02;5.93;;;2.70;;
29402;SDS011;16382;59.942;30.472;2023-05-10T12:06:30;7.60;;;2.22;;
29402;SDS011;16382;59.942;30.472;2023-05-10T12:08:58;5.28;;;1.60;;
29402;SDS011;16382;59.942;30.472;2023-05-10T12:11:27;6.82;;;2.00;;
29402;SDS011;16382;59.942;30.472;2023-05-10T12:13:55;6.30;;;1.80;;
29402;SDS011;16382;59.942;30.472;2023-05-10T12:16:24;2.03;;;1.60;;
29402;SDS011;16382;59.942;30.472;2023-05-10T12:18:52;6.53;;;1.60;;
29402;SDS011;16382;59.942;30.472;2023-05-10T12:21:21;4.95;;;1.70;;
29402;SDS011;16382;59.942;30.472;2023-05-10T12:23:49;5.88;;;1.73;;
29402;SDS011;16382;59.942;30.472;2023-05-10T12:26:18;13.30;;;5.40;;
29402;SDS011;16382;59.942;30.472;2023-05-10T12:28:50;3.53;;;1.60;;
29402;SDS011;16382;59.942;30.472;2023-05-10T12:31:17;4.70;;;2.92;;
29402;SDS011;16382;59.942;30.472;2023-05-10T12:33:45;5.60;;;1.75;;
29402;SDS011;16382;59.942;30.472;2023-05-10T12:36:15;3.20;;;1.70;;
29402;SDS011;16382;59.942;30.472;2023-05-10T12:38:43;4.43;;;1.55;;
29402;SDS011;16382;59.942;30.472;2023-05-10T12:41:14;5.10;;;1.60;;
29402;SDS011;16382;59.942;30.472;2023-05-10T12:43:42;7.43;;;1.77;;
29402;SDS011;16382;59.942;30.472;2023-05-10T12:46:13;3.25;;;1.98;;
29402;SDS011;16382;59.942;30.472;2023-05-10T12:48:44;2.85;;;2.03;;
29402;SDS011;16382;59.942;30.472;2023-05-10T12:51:12;3.50;;;1.70;;
29402;SDS011;16382;59.942;30.472;2023-05-10T12:53:42;7.30;;;1.70;;
29402;SDS011;16382;59.942;30.472;2023-05-10T12:56:11;4.63;;;1.83;;
29402;SDS011;16382;59.942;30.472;2023-05-10T12:58:38;9.10;;;1.75;;
29402;SDS011;16382;59.942;30.472;2023-05-10T13:01:05;6.57;;;2.20;;
29402;SDS011;16382;59.942;30.472;2023-05-10T13:03:35;4.70;;;1.70;;
29402;SDS011;16382;59.942;30.472;2023-05-10T13:06:02;4.40;;;1.60;;
29402;SDS011;16382;59.942;30.472;2023-05-10T13:08:29;1.98;;;1.50;;
29402;SDS011;16382;59.942;30.472;2023-05-10T13:10:58;7.22;;;1.80;;
29402;SDS011;16382;59.942;30.472;2023-05-10T13:13:26;5.47;;;1.80;;
29402;SDS011;16382;59.942;30.472;2023-05-10T13:15:53;5.22;;;1.52;;
29402;SDS011;16382;59.942;30.472;2023-05-10T13:18:23;7.35;;;1.65;;
29402;SDS011;16382;59.942;30.472;2023-05-10T13:20:53;6.60;;;2.23;;
29402;SDS011;16382;59.942;30.472;2023-05-10T13:23:20;6.75;;;1.65;;
29402;SDS011;16382;59.942;30.472;2023-05-10T13:25:48;5.25;;;1.80;;
29402;SDS011;16382;59.942;30.472;2023-05-10T13:28:15;6.00;;;1.70;;
29402;SDS011;16382;59.942;30.472;2023-05-10T13:30:42;6.88;;;1.88;;
29402;SDS011;16382;59.942;30.472;2023-05-10T13:33:10;2.33;;;1.52;;
29402;SDS011;16382;59.942;30.472;2023-05-10T13:35:37;3.03;;;1.73;;
29402;SDS011;16382;59.942;30.472;2023-05-10T13:38:06;9.63;;;1.90;;
29402;SDS011;16382;59.942;30.472;2023-05-10T13:40:33;5.63;;;1.95;;
29402;SDS011;16382;59.942;30.472;2023-05-10T13:43:01;5.03;;;1.90;;
29402;SDS011;16382;59.942;30.472;2023-05-10T13:45:28;4.15;;;1.90;;
29402;SDS011;16382;59.942;30.472;2023-05-10T13:47:55;6.05;;;1.98;;
29402;SDS011;16382;59.942;30.472;2023-05-10T13:50:23;5.13;;;1.85;;
29402;SDS011;16382;59.942;30.472;2023-05-10T13:52:50;3.28;;;1.80;;
29402;SDS011;16382;59.942;30.472;2023-05-10T13:59:00;8.50;;;2.17;;
29402;SDS011;16382;59.942;30.472;2023-05-10T14:01:28;7.43;;;1.60;;
29402;SDS011;16382;59.942;30.472;2023-05-10T14:03:55;5.90;;;1.73;;
29402;SDS011;16382;59.942;30.472;2023-05-10T14:06:22;7.22;;;1.90;;
29402;SDS011;16382;59.942;30.472;2023-05-10T14:08:50;7.78;;;2.08;;
29402;SDS011;16382;59.942;30.472;2023-05-10T14:11:17;5.03;;;1.90;;
29402;SDS011;16382;59.942;30.472;2023-05-10T14:13:44;2.60;;;1.80;;
29402;SDS011;16382;59.942;30.472;2023-05-10T14:16:13;3.72;;;1.90;;
29402;SDS011;16382;59.942;30.472;2023-05-10T14:18:41;5.10;;;2.10;;
29402;SDS011;16382;59.942;30.472;2023-05-10T14:21:08;7.28;;;2.15;;
29402;SDS011;16382;59.942;30.472;2023-05-10T14:23:36;7.40;;;1.83;;
29402;SDS011;16382;59.942;30.472;2023-05-10T14:26:12;3.85;;;2.20;;
29402;SDS011;16382;59.942;30.472;2023-05-10T14:28:43;9.00;;;1.90;;
29402;SDS011;16382;59.942;30.472;2023-05-10T14:31:11;5.95;;;2.13;;
29402;SDS011;16382;59.942;30.472;2023-05-10T14:33:42;2.80;;;1.70;;
29402;SDS011;16382;59.942;30.472;2023-05-10T14:36:09;4.63;;;1.52;;
29402;SDS011;16382;59.942;30.472;2023-05-10T14:38:37;4.35;;;2.03;;
29402;SDS011;16382;59.942;30.472;2023-05-10T14:41:04;4.55;;;2.28;;
29402;SDS011;16382;59.942;30.472;2023-05-10T14:43:32;4.50;;;1.88;;
29402;SDS011;16382;59.942;30.472;2023-05-10T14:45:59;2.60;;;1.70;;